sensor_id;sensor_type;location;lat;lon;timestamp;P1;durP1;ratioP1;P2;durP2;ratioP2
20283;SDS011;10301;50.832;4.080;2023-08-08T00:02:21;7.03;;;3.05;;
20283;SDS011;10301;50.832;4.080;2023-08-08T00:04:48;7.53;;;3.10;;
20283;SDS011;10301;50.832;4.080;2023-08-08T00:07:15;8.98;;;3.55;;
20283;SDS011;10301;50.832;4.080;2023-08-08T00:09:41;7.80;;;3.42;;
20283;SDS011;10301;50.832;4.080;2023-08-08T00:12:06;8.70;;;3.92;;
20283;SDS011;10301;50.832;4.080;2023-08-08T00:14:32;10.55;;;3.47;;
20283;SDS011;10301;50.832;4.080;2023-08-08T00:16:58;7.88;;;3.30;;
20283;SDS011;10301;50.832;4.080;2023-08-08T00:19:23;6.40;;;3.08;;
20283;SDS011;10301;50.832;4.080;2023-08-08T00:21:49;11.23;;;3.42;;
20283;SDS011;10301;50.832;4.080;2023-08-08T00:24:14;8.65;;;3.63;;
20283;SDS011;10301;50.832;4.080;2023-08-08T00:26:40;7.72;;;3.28;;
20283;SDS011;10301;50.832;4.080;2023-08-08T00:29:06;9.55;;;3.85;;
20283;SDS011;10301;50.832;4.080;2023-08-08T00:31:31;9.25;;;3.45;;
20283;SDS011;10301;50.832;4.080;2023-08-08T00:33:57;10.43;;;3.58;;
20283;SDS011;10301;50.832;4.080;2023-08-08T00:36:22;8.93;;;3.72;;
20283;SDS011;10301;50.832;4.080;2023-08-08T00:38:48;10.73;;;3.55;;
20283;SDS011;10301;50.832;4.080;2023-08-08T00:41:14;12.48;;;3.63;;
20283;SDS011;10301;50.832;4.080;2023-08-08T00:43:40;7.82;;;3.50;;
20283;SDS011;10301;50.832;4.080;2023-08-08T00:46:05;9.50;;;3.78;;
20283;SDS011;10301;50.832;4.080;2023-08-08T00:48:31;7.82;;;3.60;;
20283;SDS011;10301;50.832;4.080;2023-08-08T00:50:57;11.00;;;3.72;;
20283;SDS011;10301;50.832;4.080;2023-08-08T00:53:24;8.05;;;3.45;;
20283;SDS011;10301;50.832;4.080;2023-08-08T00:55:53;10.88;;;3.58;;
20283;SDS011;10301;50.832;4.080;2023-08-08T00:58:19;9.60;;;3.30;;
20283;SDS011;10301;50.832;4.080;2023-08-08T01:00:45;9.80;;;4.30;;
20283;SDS011;10301;50.832;4.080;2023-08-08T01:03:11;10.32;;;3.95;;
20283;SDS011;10301;50.832;4.080;2023-08-08T01:05:54;14.02;;;4.25;;
20283;SDS011;10301;50.832;4.080;2023-08-08T01:08:31;9.27;;;3.78;;
20283;SDS011;10301;50.832;4.080;2023-08-08T01:11:02;10.88;;;3.83;;
20283;SDS011;10301;50.832;4.080;2023-08-08T01:13:28;8.43;;;3.78;;
20283;SDS011;10301;50.832;4.080;2023-08-08T01:15:57;12.15;;;5.00;;
20283;SDS011;10301;50.832;4.080;2023-08-08T01:18:23;13.77;;;3.38;;
20283;SDS011;10301;50.832;4.080;2023-08-08T01:20:50;11.70;;;4.30;;
20283;SDS011;10301;50.832;4.080;2023-08-08T01:23:28;9.55;;;3.85;;
20283;SDS011;10301;50.832;4.080;2023-08-08T01:25:59;10.40;;;3.95;;
20283;SDS011;10301;50.832;4.080;2023-08-08T01:28:26;11.02;;;4.00;;
20283;SDS011;10301;50.832;4.080;2023-08-08T01:30:52;13.25;;;4.40;;
20283;SDS011;10301;50.832;4.080;2023-08-08T01:33:19;13.80;;;4.13;;
20283;SDS011;10301;50.832;4.080;2023-08-08T01:35:46;13.68;;;4.32;;
20283;SDS011;10301;50.832;4.080;2023-08-08T01:38:20;12.88;;;3.80;;
20283;SDS011;10301;50.832;4.080;2023-08-08T01:40:52;9.75;;;4.22;;
20283;SDS011;10301;50.832;4.080;2023-08-08T01:43:20;12.82;;;4.47;;
20283;SDS011;10301;50.832;4.080;2023-08-08T01:45:46;14.02;;;4.47;;
20283;SDS011;10301;50.832;4.080;2023-08-08T01:48:12;11.18;;;4.22;;
20283;SDS011;10301;50.832;4.080;2023-08-08T01:50:38;11.48;;;4.00;;
20283;SDS011;10301;50.832;4.080;2023-08-08T01:53:04;13.63;;;4.18;;
20283;SDS011;10301;50.832;4.080;2023-08-08T01:55:30;12.40;;;3.80;;
20283;SDS011;10301;50.832;4.080;2023-08-08T01:57:56;13.77;;;4.80;;
20283;SDS011;10301;50.832;4.080;2023-08-08T02:00:22;13.77;;;4.35;;
20283;SDS011;10301;50.832;4.080;2023-08-08T02:02:47;12.27;;;4.25;;
20283;SDS011;10301;50.832;4.080;2023-08-08T02:05:13;15.38;;;3.97;;
20283;SDS011;10301;50.832;4.080;2023-08-08T02:07:39;14.45;;;4.38;;
20283;SDS011;10301;50.832;4.080;2023-08-08T02:10:05;15.80;;;4.68;;
20283;SDS011;10301;50.832;4.080;2023-08-08T02:12:30;15.00;;;4.70;;
20283;SDS011;10301;50.832;4.080;2023-08-08T02:14:56;12.88;;;4.57;;
20283;SDS011;10301;50.832;4.080;2023-08-08T02:17:22;13.85;;;4.32;;
20283;SDS011;10301;50.832;4.080;2023-08-08T02:19:50;17.02;;;4.38;;
20283;SDS011;10301;50.832;4.080;2023-08-08T02:22:16;13.63;;;5.18;;
20283;SDS011;10301;50.832;4.080;2023-08-08T02:24:42;12.02;;;4.25;;
20283;SDS011;10301;50.832;4.080;2023-08-08T02:27:08;14.05;;;4.35;;
20283;SDS011;10301;50.832;4.080;2023-08-08T02:29:34;15.75;;;5.05;;
20283;SDS011;10301;50.832;4.080;2023-08-08T02:31:59;14.13;;;4.57;;
20283;SDS011;10301;50.832;4.080;2023-08-08T02:34:25;17.63;;;5.07;;
20283;SDS011;10301;50.832;4.080;2023-08-08T02:36:51;14.82;;;5.00;;
20283;SDS011;10301;50.832;4.080;2023-08-08T02:39:16;18.70;;;4.70;;
20283;SDS011;10301;50.832;4.080;2023-08-08T02:41:42;13.48;;;4.70;;
20283;SDS011;10301;50.832;4.080;2023-08-08T02:44:08;14.23;;;5.95;;
20283;SDS011;10301;50.832;4.080;2023-08-08T02:46:35;19.98;;;4.82;;
20283;SDS011;10301;50.832;4.080;2023-08-08T02:49:02;13.57;;;4.82;;
20283;SDS011;10301;50.832;4.080;2023-08-08T02:51:29;16.15;;;5.43;;
20283;SDS011;10301;50.832;4.080;2023-08-08T02:53:54;11.43;;;5.20;;
20283;SDS011;10301;50.832;4.080;2023-08-08T02:56:20;11.23;;;5.03;;
20283;SDS011;10301;50.832;4.080;2023-08-08T02:58:45;14.63;;;5.50;;
20283;SDS011;10301;50.832;4.080;2023-08-08T03:01:11;16.48;;;5.97;;
20283;SDS011;10301;50.832;4.080;2023-08-08T03:03:40;17.50;;;5.95;;
20283;SDS011;10301;50.832;4.080;2023-08-08T03:06:05;15.82;;;5.68;;
20283;SDS011;10301;50.832;4.080;2023-08-08T03:08:31;14.60;;;5.47;;
20283;SDS011;10301;50.832;4.080;2023-08-08T03:10:57;19.52;;;6.03;;
20283;SDS011;10301;50.832;4.080;2023-08-08T03:13:22;21.20;;;5.75;;
20283;SDS011;10301;50.832;4.080;2023-08-08T03:15:48;15.20;;;5.32;;
20283;SDS011;10301;50.832;4.080;2023-08-08T03:18:14;13.60;;;5.80;;
20283;SDS011;10301;50.832;4.080;2023-08-08T03:20:39;18.80;;;6.32;;
20283;SDS011;10301;50.832;4.080;2023-08-08T03:23:05;16.02;;;5.97;;
20283;SDS011;10301;50.832;4.080;2023-08-08T03:25:31;14.43;;;5.93;;
20283;SDS011;10301;50.832;4.080;2023-08-08T03:27:56;16.35;;;5.68;;
20283;SDS011;10301;50.832;4.080;2023-08-08T03:30:22;13.10;;;5.95;;
20283;SDS011;10301;50.832;4.080;2023-08-08T03:32:48;20.35;;;7.63;;
20283;SDS011;10301;50.832;4.080;2023-08-08T03:35:13;20.15;;;6.22;;
20283;SDS011;10301;50.832;4.080;2023-08-08T03:37:40;19.35;;;6.50;;
20283;SDS011;10301;50.832;4.080;2023-08-08T03:40:06;23.42;;;7.03;;
20283;SDS011;10301;50.832;4.080;2023-08-08T03:42:32;17.90;;;6.65;;
20283;SDS011;10301;50.832;4.080;2023-08-08T03:44:58;18.55;;;7.30;;
20283;SDS011;10301;50.832;4.080;2023-08-08T03:47:24;20.25;;;6.75;;
20283;SDS011;10301;50.832;4.080;2023-08-08T03:49:50;18.30;;;7.10;;
20283;SDS011;10301;50.832;4.080;2023-08-08T03:52:16;14.30;;;6.80;;
20283;SDS011;10301;50.832;4.080;2023-08-08T03:54:42;17.35;;;6.72;;
20283;SDS011;10301;50.832;4.080;2023-08-08T03:57:09;16.30;;;7.13;;
20283;SDS011;10301;50.832;4.080;2023-08-08T03:59:34;19.52;;;7.20;;
20283;SDS011;10301;50.832;4.080;2023-08-08T04:02:00;18.40;;;6.80;;
20283;SDS011;10301;50.832;4.080;2023-08-08T04:04:26;21.13;;;8.02;;
20283;SDS011;10301;50.832;4.080;2023-08-08T04:06:51;17.63;;;7.10;;
20283;SDS011;10301;50.832;4.080;2023-08-08T04:09:17;16.42;;;7.07;;
20283;SDS011;10301;50.832;4.080;2023-08-08T04:11:42;21.23;;;7.40;;
20283;SDS011;10301;50.832;4.080;2023-08-08T04:14:08;24.95;;;7.60;;
20283;SDS011;10301;50.832;4.080;2023-08-08T04:16:34;19.30;;;7.70;;
20283;SDS011;10301;50.832;4.080;2023-08-08T04:18:59;20.05;;;7.43;;
20283;SDS011;10301;50.832;4.080;2023-08-08T04:21:28;16.73;;;7.07;;
20283;SDS011;10301;50.832;4.080;2023-08-08T04:23:57;17.00;;;6.68;;
20283;SDS011;10301;50.832;4.080;2023-08-08T04:26:23;30.38;;;7.90;;
20283;SDS011;10301;50.832;4.080;2023-08-08T04:28:49;20.30;;;8.65;;
20283;SDS011;10301;50.832;4.080;2023-08-08T04:31:14;18.38;;;6.78;;
20283;SDS011;10301;50.832;4.080;2023-08-08T04:33:40;26.23;;;6.88;;
20283;SDS011;10301;50.832;4.080;2023-08-08T04:36:06;24.90;;;8.00;;
20283;SDS011;10301;50.832;4.080;2023-08-08T04:38:31;18.52;;;7.65;;
20283;SDS011;10301;50.832;4.080;2023-08-08T04:40:57;23.27;;;7.13;;
20283;SDS011;10301;50.832;4.080;2023-08-08T04:43:22;19.98;;;7.05;;
20283;SDS011;10301;50.832;4.080;2023-08-08T04:45:48;20.60;;;6.90;;
20283;SDS011;10301;50.832;4.080;2023-08-08T04:48:14;19.33;;;7.03;;
20283;SDS011;10301;50.832;4.080;2023-08-08T04:50:39;13.15;;;6.13;;
20283;SDS011;10301;50.832;4.080;2023-08-08T04:53:06;15.80;;;7.03;;
20283;SDS011;10301;50.832;4.080;2023-08-08T04:55:31;22.42;;;7.15;;
20283;SDS011;10301;50.832;4.080;2023-08-08T04:57:57;22.98;;;6.53;;
20283;SDS011;10301;50.832;4.080;2023-08-08T05:00:23;17.58;;;6.88;;
20283;SDS011;10301;50.832;4.080;2023-08-08T05:02:51;21.55;;;7.13;;
20283;SDS011;10301;50.832;4.080;2023-08-08T05:05:16;18.02;;;6.95;;
20283;SDS011;10301;50.832;4.080;2023-08-08T05:07:42;24.38;;;7.03;;
20283;SDS011;10301;50.832;4.080;2023-08-08T05:10:07;19.00;;;6.57;;
20283;SDS011;10301;50.832;4.080;2023-08-08T05:12:33;16.08;;;6.47;;
20283;SDS011;10301;50.832;4.080;2023-08-08T05:14:59;19.83;;;6.82;;
20283;SDS011;10301;50.832;4.080;2023-08-08T05:17:24;17.58;;;7.15;;
20283;SDS011;10301;50.832;4.080;2023-08-08T05:19:50;15.93;;;6.40;;
20283;SDS011;10301;50.832;4.080;2023-08-08T05:22:16;18.00;;;6.40;;
20283;SDS011;10301;50.832;4.080;2023-08-08T05:24:41;17.55;;;7.20;;
20283;SDS011;10301;50.832;4.080;2023-08-08T05:27:07;17.60;;;6.78;;
20283;SDS011;10301;50.832;4.080;2023-08-08T05:29:32;21.00;;;6.70;;
20283;SDS011;10301;50.832;4.080;2023-08-08T05:31:59;16.58;;;6.40;;
20283;SDS011;10301;50.832;4.080;2023-08-08T05:34:24;21.00;;;6.95;;
20283;SDS011;10301;50.832;4.080;2023-08-08T05:36:50;19.20;;;6.22;;
20283;SDS011;10301;50.832;4.080;2023-08-08T05:39:16;15.68;;;6.45;;
20283;SDS011;10301;50.832;4.080;2023-08-08T05:41:41;20.65;;;6.40;;
20283;SDS011;10301;50.832;4.080;2023-08-08T05:44:07;19.88;;;5.97;;
20283;SDS011;10301;50.832;4.080;2023-08-08T05:46:32;20.73;;;5.78;;
20283;SDS011;10301;50.832;4.080;2023-08-08T05:48:58;12.55;;;5.82;;
20283;SDS011;10301;50.832;4.080;2023-08-08T05:51:24;16.98;;;5.90;;
20283;SDS011;10301;50.832;4.080;2023-08-08T05:53:49;18.95;;;5.55;;
20283;SDS011;10301;50.832;4.080;2023-08-08T05:56:15;14.82;;;5.20;;
20283;SDS011;10301;50.832;4.080;2023-08-08T05:58:41;18.02;;;5.97;;
20283;SDS011;10301;50.832;4.080;2023-08-08T06:01:06;20.25;;;5.78;;
20283;SDS011;10301;50.832;4.080;2023-08-08T06:03:34;18.67;;;5.40;;
20283;SDS011;10301;50.832;4.080;2023-08-08T06:06:00;14.55;;;4.88;;
20283;SDS011;10301;50.832;4.080;2023-08-08T06:08:26;18.05;;;5.03;;
20283;SDS011;10301;50.832;4.080;2023-08-08T06:10:52;12.70;;;4.72;;
20283;SDS011;10301;50.832;4.080;2023-08-08T06:13:17;18.77;;;5.13;;
20283;SDS011;10301;50.832;4.080;2023-08-08T06:15:43;13.80;;;4.80;;
20283;SDS011;10301;50.832;4.080;2023-08-08T06:18:09;17.20;;;5.45;;
20283;SDS011;10301;50.832;4.080;2023-08-08T06:20:34;14.15;;;5.10;;
20283;SDS011;10301;50.832;4.080;2023-08-08T06:23:00;20.48;;;6.22;;
20283;SDS011;10301;50.832;4.080;2023-08-08T06:25:25;21.02;;;5.38;;
20283;SDS011;10301;50.832;4.080;2023-08-08T06:27:52;12.95;;;5.00;;
20283;SDS011;10301;50.832;4.080;2023-08-08T06:30:18;14.75;;;5.00;;
20283;SDS011;10301;50.832;4.080;2023-08-08T06:32:43;13.73;;;4.60;;
20283;SDS011;10301;50.832;4.080;2023-08-08T06:35:09;19.48;;;5.47;;
20283;SDS011;10301;50.832;4.080;2023-08-08T06:37:35;16.30;;;5.25;;
20283;SDS011;10301;50.832;4.080;2023-08-08T06:40:00;18.33;;;5.03;;
20283;SDS011;10301;50.832;4.080;2023-08-08T06:42:26;14.98;;;4.60;;
20283;SDS011;10301;50.832;4.080;2023-08-08T06:44:52;14.18;;;4.57;;
20283;SDS011;10301;50.832;4.080;2023-08-08T06:47:17;14.75;;;4.88;;
20283;SDS011;10301;50.832;4.080;2023-08-08T06:49:43;11.80;;;4.22;;
20283;SDS011;10301;50.832;4.080;2023-08-08T06:52:08;15.23;;;4.60;;
20283;SDS011;10301;50.832;4.080;2023-08-08T06:54:34;19.45;;;4.80;;
20283;SDS011;10301;50.832;4.080;2023-08-08T06:57:00;14.45;;;4.63;;
20283;SDS011;10301;50.832;4.080;2023-08-08T06:59:27;17.70;;;4.18;;
20283;SDS011;10301;50.832;4.080;2023-08-08T07:01:53;15.73;;;4.25;;
20283;SDS011;10301;50.832;4.080;2023-08-08T07:04:19;13.55;;;4.63;;
20283;SDS011;10301;50.832;4.080;2023-08-08T07:06:46;17.50;;;4.50;;
20283;SDS011;10301;50.832;4.080;2023-08-08T07:09:12;13.75;;;4.18;;
20283;SDS011;10301;50.832;4.080;2023-08-08T07:11:38;12.30;;;4.43;;
20283;SDS011;10301;50.832;4.080;2023-08-08T07:14:03;16.17;;;4.30;;
20283;SDS011;10301;50.832;4.080;2023-08-08T07:16:29;14.77;;;4.53;;
20283;SDS011;10301;50.832;4.080;2023-08-08T07:18:55;10.70;;;3.95;;
20283;SDS011;10301;50.832;4.080;2023-08-08T07:21:20;15.23;;;4.30;;
20283;SDS011;10301;50.832;4.080;2023-08-08T07:23:46;18.73;;;4.60;;
20283;SDS011;10301;50.832;4.080;2023-08-08T07:26:11;18.70;;;4.78;;
20283;SDS011;10301;50.832;4.080;2023-08-08T07:28:37;14.70;;;4.97;;
20283;SDS011;10301;50.832;4.080;2023-08-08T07:31:03;13.75;;;4.38;;
20283;SDS011;10301;50.832;4.080;2023-08-08T07:33:29;10.75;;;4.18;;
20283;SDS011;10301;50.832;4.080;2023-08-08T07:35:54;12.77;;;3.92;;
20283;SDS011;10301;50.832;4.080;2023-08-08T07:38:20;17.27;;;5.03;;
20283;SDS011;10301;50.832;4.080;2023-08-08T07:40:46;11.95;;;3.95;;
20283;SDS011;10301;50.832;4.080;2023-08-08T07:43:13;17.65;;;4.40;;
20283;SDS011;10301;50.832;4.080;2023-08-08T07:45:38;16.70;;;4.20;;
20283;SDS011;10301;50.832;4.080;2023-08-08T07:48:04;11.05;;;4.38;;
20283;SDS011;10301;50.832;4.080;2023-08-08T07:50:30;19.92;;;4.15;;
20283;SDS011;10301;50.832;4.080;2023-08-08T07:52:56;14.07;;;4.03;;
20283;SDS011;10301;50.832;4.080;2023-08-08T07:55:22;15.35;;;4.40;;
20283;SDS011;10301;50.832;4.080;2023-08-08T07:57:47;12.25;;;4.25;;
20283;SDS011;10301;50.832;4.080;2023-08-08T08:00:13;13.13;;;3.78;;
20283;SDS011;10301;50.832;4.080;2023-08-08T08:02:39;9.70;;;3.60;;
20283;SDS011;10301;50.832;4.080;2023-08-08T08:05:06;15.32;;;4.10;;
20283;SDS011;10301;50.832;4.080;2023-08-08T08:07:33;15.73;;;3.50;;
20283;SDS011;10301;50.832;4.080;2023-08-08T08:10:00;12.68;;;3.80;;
20283;SDS011;10301;50.832;4.080;2023-08-08T08:12:27;13.10;;;3.65;;
20283;SDS011;10301;50.832;4.080;2023-08-08T08:14:52;13.93;;;3.95;;
20283;SDS011;10301;50.832;4.080;2023-08-08T08:17:18;11.23;;;3.80;;
20283;SDS011;10301;50.832;4.080;2023-08-08T08:19:44;14.85;;;3.80;;
20283;SDS011;10301;50.832;4.080;2023-08-08T08:22:09;14.93;;;3.83;;
20283;SDS011;10301;50.832;4.080;2023-08-08T08:24:35;13.85;;;3.40;;
20283;SDS011;10301;50.832;4.080;2023-08-08T08:27:00;16.50;;;4.78;;
20283;SDS011;10301;50.832;4.080;2023-08-08T08:29:26;12.50;;;3.72;;
20283;SDS011;10301;50.832;4.080;2023-08-08T08:31:52;12.18;;;3.17;;
20283;SDS011;10301;50.832;4.080;2023-08-08T08:34:18;13.80;;;3.72;;
20283;SDS011;10301;50.832;4.080;2023-08-08T08:36:43;11.13;;;3.35;;
20283;SDS011;10301;50.832;4.080;2023-08-08T08:39:09;12.13;;;3.35;;
20283;SDS011;10301;50.832;4.080;2023-08-08T08:41:35;12.55;;;3.30;;
20283;SDS011;10301;50.832;4.080;2023-08-08T08:44:04;13.32;;;3.60;;
20283;SDS011;10301;50.832;4.080;2023-08-08T08:46:31;14.63;;;3.33;;
20283;SDS011;10301;50.832;4.080;2023-08-08T08:49:00;14.43;;;3.38;;
20283;SDS011;10301;50.832;4.080;2023-08-08T08:51:27;11.77;;;2.95;;
20283;SDS011;10301;50.832;4.080;2023-08-08T08:53:53;11.70;;;3.35;;
20283;SDS011;10301;50.832;4.080;2023-08-08T08:56:19;10.32;;;3.28;;
20283;SDS011;10301;50.832;4.080;2023-08-08T08:58:45;10.38;;;3.00;;
20283;SDS011;10301;50.832;4.080;2023-08-08T09:01:11;9.85;;;2.90;;
20283;SDS011;10301;50.832;4.080;2023-08-08T09:03:37;13.32;;;3.08;;
20283;SDS011;10301;50.832;4.080;2023-08-08T09:06:03;15.63;;;3.28;;
20283;SDS011;10301;50.832;4.080;2023-08-08T09:08:29;11.32;;;3.30;;
20283;SDS011;10301;50.832;4.080;2023-08-08T09:10:55;12.65;;;3.25;;
20283;SDS011;10301;50.832;4.080;2023-08-08T09:13:21;10.23;;;3.00;;
20283;SDS011;10301;50.832;4.080;2023-08-08T09:15:48;6.10;;;2.30;;
20283;SDS011;10301;50.832;4.080;2023-08-08T09:18:14;7.95;;;2.72;;
20283;SDS011;10301;50.832;4.080;2023-08-08T09:20:40;6.80;;;2.53;;
20283;SDS011;10301;50.832;4.080;2023-08-08T09:23:05;8.23;;;2.58;;
20283;SDS011;10301;50.832;4.080;2023-08-08T09:25:31;9.85;;;2.80;;
20283;SDS011;10301;50.832;4.080;2023-08-08T09:27:57;5.00;;;1.92;;
20283;SDS011;10301;50.832;4.080;2023-08-08T09:30:22;9.20;;;2.70;;
20283;SDS011;10301;50.832;4.080;2023-08-08T09:32:57;11.38;;;2.90;;
20283;SDS011;10301;50.832;4.080;2023-08-08T09:35:23;6.78;;;2.35;;
20283;SDS011;10301;50.832;4.080;2023-08-08T09:37:51;9.40;;;2.50;;
20283;SDS011;10301;50.832;4.080;2023-08-08T09:40:18;8.88;;;2.50;;
20283;SDS011;10301;50.832;4.080;2023-08-08T09:42:46;7.45;;;2.20;;
20283;SDS011;10301;50.832;4.080;2023-08-08T09:45:13;10.15;;;2.67;;
20283;SDS011;10301;50.832;4.080;2023-08-08T09:47:39;11.00;;;2.72;;
20283;SDS011;10301;50.832;4.080;2023-08-08T09:50:05;9.45;;;2.20;;
20283;SDS011;10301;50.832;4.080;2023-08-08T09:52:32;5.30;;;1.85;;
20283;SDS011;10301;50.832;4.080;2023-08-08T09:54:59;6.28;;;2.05;;
20283;SDS011;10301;50.832;4.080;2023-08-08T09:57:25;10.60;;;2.03;;
20283;SDS011;10301;50.832;4.080;2023-08-08T09:59:52;6.53;;;2.00;;
20283;SDS011;10301;50.832;4.080;2023-08-08T10:02:18;7.18;;;2.00;;
20283;SDS011;10301;50.832;4.080;2023-08-08T10:04:46;7.25;;;1.92;;
20283;SDS011;10301;50.832;4.080;2023-08-08T10:07:13;9.23;;;2.10;;
20283;SDS011;10301;50.832;4.080;2023-08-08T10:09:40;6.88;;;1.77;;
20283;SDS011;10301;50.832;4.080;2023-08-08T10:12:06;6.38;;;2.17;;
20283;SDS011;10301;50.832;4.080;2023-08-08T10:14:34;6.13;;;2.17;;
20283;SDS011;10301;50.832;4.080;2023-08-08T10:17:05;9.98;;;3.35;;
20283;SDS011;10301;50.832;4.080;2023-08-08T10:19:31;5.85;;;2.10;;
20283;SDS011;10301;50.832;4.080;2023-08-08T10:22:03;5.90;;;2.30;;
20283;SDS011;10301;50.832;4.080;2023-08-08T10:24:36;7.15;;;2.35;;
20283;SDS011;10301;50.832;4.080;2023-08-08T10:27:03;5.78;;;1.90;;
20283;SDS011;10301;50.832;4.080;2023-08-08T10:29:30;10.48;;;1.98;;
20283;SDS011;10301;50.832;4.080;2023-08-08T10:32:04;6.50;;;1.85;;
20283;SDS011;10301;50.832;4.080;2023-08-08T10:37:13;7.22;;;2.13;;
20283;SDS011;10301;50.832;4.080;2023-08-08T10:39:50;7.55;;;2.30;;
20283;SDS011;10301;50.832;4.080;2023-08-08T10:42:18;6.03;;;2.28;;
20283;SDS011;10301;50.832;4.080;2023-08-08T10:44:50;5.57;;;1.85;;
20283;SDS011;10301;50.832;4.080;2023-08-08T10:47:30;5.97;;;2.20;;
20283;SDS011;10301;50.832;4.080;2023-08-08T10:49:59;7.03;;;2.05;;
20283;SDS011;10301;50.832;4.080;2023-08-08T10:52:28;6.38;;;2.03;;
20283;SDS011;10301;50.832;4.080;2023-08-08T10:54:54;3.92;;;1.80;;
20283;SDS011;10301;50.832;4.080;2023-08-08T10:57:23;5.82;;;2.45;;
20283;SDS011;10301;50.832;4.080;2023-08-08T10:59:50;6.28;;;2.00;;
20283;SDS011;10301;50.832;4.080;2023-08-08T11:02:16;7.43;;;2.10;;
20283;SDS011;10301;50.832;4.080;2023-08-08T11:04:43;7.72;;;1.90;;
20283;SDS011;10301;50.832;4.080;2023-08-08T11:07:09;5.68;;;2.08;;
20283;SDS011;10301;50.832;4.080;2023-08-08T11:09:35;6.78;;;2.00;;
20283;SDS011;10301;50.832;4.080;2023-08-08T11:12:01;7.45;;;1.63;;
20283;SDS011;10301;50.832;4.080;2023-08-08T11:14:27;5.18;;;1.73;;
20283;SDS011;10301;50.832;4.080;2023-08-08T11:16:52;6.20;;;2.25;;
20283;SDS011;10301;50.832;4.080;2023-08-08T11:19:18;6.50;;;1.80;;
20283;SDS011;10301;50.832;4.080;2023-08-08T11:21:45;3.60;;;1.40;;
20283;SDS011;10301;50.832;4.080;2023-08-08T11:24:11;4.75;;;1.52;;
20283;SDS011;10301;50.832;4.080;2023-08-08T11:26:38;5.45;;;1.67;;
20283;SDS011;10301;50.832;4.080;2023-08-08T11:29:05;5.15;;;2.03;;
20283;SDS011;10301;50.832;4.080;2023-08-08T11:31:31;6.93;;;2.00;;
20283;SDS011;10301;50.832;4.080;2023-08-08T11:33:59;5.15;;;1.50;;
20283;SDS011;10301;50.832;4.080;2023-08-08T11:36:25;7.20;;;1.60;;
20283;SDS011;10301;50.832;4.080;2023-08-08T11:38:53;5.72;;;1.90;;
20283;SDS011;10301;50.832;4.080;2023-08-08T11:41:22;4.80;;;1.90;;
20283;SDS011;10301;50.832;4.080;2023-08-08T11:43:49;5.60;;;2.03;;
20283;SDS011;10301;50.832;4.080;2023-08-08T11:46:16;4.50;;;1.98;;
20283;SDS011;10301;50.832;4.080;2023-08-08T11:48:42;6.95;;;1.92;;
20283;SDS011;10301;50.832;4.080;2023-08-08T11:51:11;6.57;;;2.03;;
20283;SDS011;10301;50.832;4.080;2023-08-08T11:53:49;7.70;;;1.80;;
20283;SDS011;10301;50.832;4.080;2023-08-08T11:56:17;5.22;;;1.95;;
20283;SDS011;10301;50.832;4.080;2023-08-08T11:58:50;6.13;;;2.03;;
20283;SDS011;10301;50.832;4.080;2023-08-08T12:01:19;8.13;;;1.95;;
20283;SDS011;10301;50.832;4.080;2023-08-08T12:03:45;4.72;;;1.73;;
20283;SDS011;10301;50.832;4.080;2023-08-08T12:06:17;4.78;;;1.77;;
20283;SDS011;10301;50.832;4.080;2023-08-08T12:08:44;6.38;;;1.85;;
20283;SDS011;10301;50.832;4.080;2023-08-08T12:11:11;6.28;;;1.77;;
20283;SDS011;10301;50.832;4.080;2023-08-08T12:13:38;5.22;;;1.88;;
20283;SDS011;10301;50.832;4.080;2023-08-08T12:16:11;5.00;;;2.10;;
20283;SDS011;10301;50.832;4.080;2023-08-08T12:18:38;6.05;;;1.70;;
20283;SDS011;10301;50.832;4.080;2023-08-08T12:21:05;11.02;;;4.45;;
20283;SDS011;10301;50.832;4.080;2023-08-08T12:23:34;5.20;;;1.90;;
20283;SDS011;10301;50.832;4.080;2023-08-08T12:26:05;5.22;;;2.30;;
20283;SDS011;10301;50.832;4.080;2023-08-08T12:28:32;5.97;;;2.35;;
20283;SDS011;10301;50.832;4.080;2023-08-08T12:30:58;5.38;;;2.15;;
20283;SDS011;10301;50.832;4.080;2023-08-08T12:33:23;6.50;;;2.70;;
20283;SDS011;10301;50.832;4.080;2023-08-08T12:35:49;5.75;;;1.90;;
20283;SDS011;10301;50.832;4.080;2023-08-08T12:38:15;5.35;;;2.00;;
20283;SDS011;10301;50.832;4.080;2023-08-08T12:40:40;8.35;;;3.28;;
20283;SDS011;10301;50.832;4.080;2023-08-08T12:43:06;5.72;;;2.00;;
20283;SDS011;10301;50.832;4.080;2023-08-08T12:45:34;5.65;;;2.25;;
20283;SDS011;10301;50.832;4.080;2023-08-08T12:47:59;5.80;;;1.88;;
20283;SDS011;10301;50.832;4.080;2023-08-08T12:50:25;5.18;;;2.00;;
20283;SDS011;10301;50.832;4.080;2023-08-08T12:52:51;7.60;;;3.40;;
20283;SDS011;10301;50.832;4.080;2023-08-08T12:55:16;5.68;;;2.40;;
20283;SDS011;10301;50.832;4.080;2023-08-08T12:57:43;4.53;;;1.70;;
20283;SDS011;10301;50.832;4.080;2023-08-08T13:00:09;4.28;;;2.13;;
20283;SDS011;10301;50.832;4.080;2023-08-08T13:02:36;6.78;;;2.13;;
20283;SDS011;10301;50.832;4.080;2023-08-08T13:05:03;5.22;;;2.30;;
20283;SDS011;10301;50.832;4.080;2023-08-08T13:07:29;4.90;;;1.80;;
20283;SDS011;10301;50.832;4.080;2023-08-08T13:09:54;6.50;;;2.00;;
20283;SDS011;10301;50.832;4.080;2023-08-08T13:12:20;6.32;;;2.00;;
20283;SDS011;10301;50.832;4.080;2023-08-08T13:14:46;5.18;;;1.60;;
20283;SDS011;10301;50.832;4.080;2023-08-08T13:17:12;5.93;;;1.45;;
20283;SDS011;10301;50.832;4.080;2023-08-08T13:19:38;3.80;;;1.50;;
20283;SDS011;10301;50.832;4.080;2023-08-08T13:22:03;5.32;;;1.92;;
20283;SDS011;10301;50.832;4.080;2023-08-08T13:24:29;4.63;;;1.70;;
20283;SDS011;10301;50.832;4.080;2023-08-08T13:26:55;4.05;;;1.83;;
20283;SDS011;10301;50.832;4.080;2023-08-08T13:29:21;9.38;;;2.15;;
20283;SDS011;10301;50.832;4.080;2023-08-08T13:31:46;4.85;;;1.55;;
20283;SDS011;10301;50.832;4.080;2023-08-08T13:34:12;4.68;;;1.80;;
20283;SDS011;10301;50.832;4.080;2023-08-08T13:36:39;5.35;;;1.83;;
20283;SDS011;10301;50.832;4.080;2023-08-08T13:39:04;8.55;;;1.65;;
20283;SDS011;10301;50.832;4.080;2023-08-08T13:41:30;5.00;;;1.50;;
20283;SDS011;10301;50.832;4.080;2023-08-08T13:43:56;3.38;;;1.20;;
20283;SDS011;10301;50.832;4.080;2023-08-08T13:46:22;4.35;;;1.63;;
20283;SDS011;10301;50.832;4.080;2023-08-08T13:48:47;4.43;;;1.30;;
20283;SDS011;10301;50.832;4.080;2023-08-08T13:51:13;3.78;;;1.23;;
20283;SDS011;10301;50.832;4.080;2023-08-08T13:53:39;4.25;;;1.73;;
20283;SDS011;10301;50.832;4.080;2023-08-08T13:56:04;3.22;;;1.20;;
20283;SDS011;10301;50.832;4.080;2023-08-08T13:58:30;4.07;;;1.30;;
20283;SDS011;10301;50.832;4.080;2023-08-08T14:00:56;3.90;;;1.10;;
20283;SDS011;10301;50.832;4.080;2023-08-08T14:03:22;4.47;;;1.70;;
20283;SDS011;10301;50.832;4.080;2023-08-08T14:05:49;4.57;;;1.40;;
20283;SDS011;10301;50.832;4.080;2023-08-08T14:08:15;4.03;;;1.55;;
20283;SDS011;10301;50.832;4.080;2023-08-08T14:10:41;4.03;;;1.45;;
20283;SDS011;10301;50.832;4.080;2023-08-08T14:13:06;3.08;;;1.40;;
20283;SDS011;10301;50.832;4.080;2023-08-08T14:15:32;2.70;;;1.30;;
20283;SDS011;10301;50.832;4.080;2023-08-08T14:17:58;3.17;;;1.27;;
20283;SDS011;10301;50.832;4.080;2023-08-08T14:20:25;4.07;;;1.40;;
20283;SDS011;10301;50.832;4.080;2023-08-08T14:22:51;4.70;;;1.67;;
20283;SDS011;10301;50.832;4.080;2023-08-08T14:25:16;5.45;;;1.40;;
20283;SDS011;10301;50.832;4.080;2023-08-08T14:27:42;5.45;;;1.55;;
20283;SDS011;10301;50.832;4.080;2023-08-08T14:30:07;4.82;;;1.40;;
20283;SDS011;10301;50.832;4.080;2023-08-08T14:32:33;7.18;;;1.50;;
20283;SDS011;10301;50.832;4.080;2023-08-08T14:34:59;4.43;;;1.45;;
20283;SDS011;10301;50.832;4.080;2023-08-08T14:37:27;4.53;;;1.20;;
20283;SDS011;10301;50.832;4.080;2023-08-08T14:39:53;3.85;;;1.40;;